.
WxDataArchive / Data Records for 2012-02-05
2012-02-04 February 2012 2012-02-06

Data Records for Sunday, 05 February 2012

Time	Temp	Chill	HIndex	Humid	Dewpt	 Wind 	HiWind	WindDir	Rain 	Barom 
-----	----	-----	------	-----	-----	------	------	-------	-----	----- 
00:00	31.8	31.8	31.8	92	29.7	0	0	---	0.00	30.178 
00:05	31.6	31.6	31.6	93	29.8	0	0	---	0.00	30.178 
00:10	31.6	31.6	31.6	93	29.8	0	0	---	0.00	30.178 
00:15	31.6	31.6	31.6	93	29.8	0	0	---	0.00	30.175 
00:20	31.6	31.6	31.6	93	29.8	0	0	---	0.00	30.175 
00:25	31.6	31.6	31.6	93	29.8	0	0	---	0.00	30.175 
00:30	31.5	31.5	31.5	93	29.7	0	0	---	0.00	30.166 
00:35	31.5	31.5	31.5	93	29.7	0	0	---	0.00	30.166 
00:40	31.3	31.3	31.3	93	29.5	0	0	---	0.00	30.166 
00:45	31.2	31.2	31.2	93	29.4	0	0	---	0.00	30.169 
00:50	30.9	30.9	30.9	93	29.1	0	0	---	0.00	30.169 
00:55	30.6	30.6	30.6	93	28.8	0	0	---	0.00	30.169 
01:00	30.4	30.4	30.4	93	28.6	0	0	---	0.00	30.168 
01:05	30.1	30.1	30.1	93	28.3	0	0	---	0.00	30.168 
01:10	30.0	30.0	30.0	93	28.2	0	0	---	0.00	30.168 
01:15	29.7	29.7	29.7	93	27.9	0	0	---	0.00	30.167 
01:20	29.5	29.5	29.5	93	27.7	0	0	---	0.00	30.167 
01:25	29.4	29.4	29.4	93	27.6	0	0	---	0.00	30.167 
01:30	29.3	29.3	29.3	93	27.5	0	0	---	0.00	30.167 
01:35	29.1	29.1	29.1	93	27.3	0	0	---	0.00	30.167 
01:40	28.8	28.8	28.8	93	27.0	0	0	---	0.00	30.167 
01:45	28.7	28.7	28.7	93	26.9	0	0	---	0.00	30.171 
01:50	28.5	28.5	28.5	93	26.7	0	0	---	0.00	30.171 
01:55	28.2	28.2	28.2	92	26.2	0	0	---	0.00	30.171 
02:00	27.9	27.9	27.9	92	25.9	0	0	---	0.00	30.172 
02:05	27.8	27.8	27.8	92	25.8	0	0	---	0.00	30.172 
02:10	27.5	27.5	27.5	93	25.7	0	0	---	0.00	30.172 
02:15	27.3	27.3	27.3	93	25.5	0	0	---	0.00	30.170 
02:20	27.2	27.2	27.2	93	25.4	0	0	---	0.00	30.170 
02:25	27.0	27.0	27.0	93	25.3	0	0	---	0.00	30.170 
02:30	26.7	26.7	26.7	93	25.0	0	0	---	0.00	30.171 
02:35	26.6	26.6	26.6	93	24.9	0	0	---	0.00	30.171 
02:40	26.4	26.4	26.4	93	24.7	0	0	---	0.00	30.171 
02:45	26.1	26.1	26.1	93	24.4	0	0	---	0.00	30.172 
02:50	26.1	26.1	26.1	93	24.4	0	0	---	0.00	30.172 
02:55	26.0	26.0	26.0	93	24.3	0	0	---	0.00	30.172 
03:00	25.8	25.8	25.8	93	24.1	0	0	---	0.00	30.171 
03:05	25.7	25.7	25.7	93	24.0	0	0	---	0.00	30.171 
03:10	25.6	25.6	25.6	93	23.9	0	0	---	0.00	30.171 
03:15	25.4	25.4	25.4	93	23.7	0	0	---	0.00	30.170 
03:20	25.3	25.3	25.3	93	23.6	0	0	---	0.00	30.170 
03:25	25.1	25.1	25.1	93	23.4	0	0	---	0.00	30.170 
03:30	25.0	25.0	25.0	92	23.0	0	0	---	0.00	30.172 
03:35	24.7	24.7	24.7	92	22.7	0	0	---	0.00	30.172 
03:40	24.4	24.4	24.4	92	22.4	0	0	---	0.00	30.172 
03:45	24.2	24.2	24.2	92	22.2	0	0	---	0.00	30.174 
03:50	23.9	23.9	23.9	92	21.9	0	0	---	0.00	30.174 
03:55	23.6	23.6	23.6	92	21.6	0	0	---	0.00	30.174 
04:00	23.3	23.3	23.3	92	21.3	0	0	---	0.00	30.178 
04:05	23.0	23.0	23.0	92	21.0	0	0	---	0.00	30.178 
04:10	22.9	22.9	22.9	92	20.9	0	0	---	0.00	30.178 
04:15	22.7	22.7	22.7	92	20.7	0	0	---	0.00	30.181 
04:20	22.9	22.9	22.9	92	20.9	0	0	---	0.00	30.181 
04:25	22.7	22.7	22.7	92	20.7	0	0	---	0.00	30.181 
04:30	22.5	22.5	22.5	92	20.5	0	0	---	0.00	30.183 
04:35	22.4	22.4	22.4	92	20.4	0	0	---	0.00	30.183 
04:40	22.1	22.1	22.1	92	20.1	0	0	---	0.00	30.183 
04:45	21.9	21.9	21.9	92	19.9	0	0	---	0.00	30.189 
04:50	21.8	21.8	21.8	92	19.8	0	0	---	0.00	30.189 
04:55	21.6	21.6	21.6	92	19.6	0	0	---	0.00	30.189 
05:00	21.6	21.6	21.6	92	19.6	0	0	---	0.00	30.192 
05:05	21.4	21.4	21.4	92	19.4	0	0	---	0.00	30.192 
05:10	21.1	21.1	21.1	92	19.1	0	0	---	0.00	30.192 
05:15	21.0	21.0	21.0	92	19.0	0	0	---	0.00	30.201 
05:20	20.8	20.8	20.8	92	18.9	0	0	---	0.00	30.201 
05:25	20.8	20.8	20.8	92	18.9	0	0	---	0.00	30.201 
05:30	20.8	20.8	20.8	92	18.9	0	0	---	0.00	30.192 
05:35	20.8	20.8	20.8	92	18.9	0	0	---	0.00	30.192 
05:40	20.8	20.8	20.8	92	18.9	0	0	---	0.00	30.192 
05:45	20.8	20.8	20.8	92	18.9	0	0	---	0.00	30.195 
05:50	20.6	20.6	20.6	92	18.7	0	0	---	0.00	30.195 
05:55	20.6	20.6	20.6	92	18.7	0	0	---	0.00	30.195 
06:00	20.5	20.5	20.5	92	18.6	0	0	---	0.00	30.198 
06:05	20.3	20.3	20.3	92	18.4	0	0	---	0.00	30.198 
06:10	20.2	20.2	20.2	92	18.3	0	0	---	0.00	30.198 
06:15	20.2	20.2	20.2	92	18.3	0	0	---	0.00	30.206 
06:20	20.0	20.0	20.0	92	18.1	0	0	---	0.00	30.206 
06:25	19.9	19.9	19.9	92	18.0	0	0	---	0.00	30.206 
06:30	19.7	19.7	19.7	92	17.8	0	0	---	0.00	30.208 
06:35	19.5	19.5	19.5	92	17.6	0	0	---	0.00	30.208 
06:40	19.5	19.5	19.5	92	17.6	0	0	---	0.00	30.208 
06:45	19.4	19.4	19.4	92	17.5	0	0	---	0.00	30.211 
06:50	19.2	19.2	19.2	92	17.3	0	0	---	0.00	30.211 
06:55	19.1	19.1	19.1	92	17.2	0	0	---	0.00	30.211 
07:00	19.2	19.2	19.2	92	17.3	0	0	---	0.00	30.219 
07:05	19.2	19.2	19.2	92	17.3	0	0	---	0.00	30.219 
07:10	19.4	19.4	19.4	92	17.5	0	0	---	0.00	30.219 
07:15	19.2	19.2	19.2	92	17.3	0	0	---	0.00	30.225 
07:20	19.1	19.1	19.1	92	17.2	0	0	---	0.00	30.225 
07:25	18.9	18.9	18.9	92	17.0	0	0	---	0.00	30.225 
07:30	18.8	18.8	18.8	92	16.9	0	0	---	0.00	30.236 
07:35	18.8	18.8	18.8	92	16.9	0	0	---	0.00	30.236 
07:40	18.8	18.8	18.8	92	16.9	0	0	---	0.00	30.236 
07:45	18.6	18.6	18.6	92	16.7	0	0	---	0.00	30.240 
07:50	18.4	18.4	18.4	92	16.5	0	0	---	0.00	30.240 
07:55	18.4	18.4	18.4	92	16.5	0	0	---	0.00	30.240 
08:00	18.4	18.4	18.4	92	16.5	0	0	---	0.00	30.241 
08:05	18.3	18.3	18.3	92	16.4	0	1	90	0.00	30.241 
08:10	18.3	18.3	18.3	92	16.4	0	0	---	0.00	30.241 
08:15	18.3	18.3	18.3	92	16.4	0	0	---	0.00	30.244 
08:20	18.6	18.6	18.6	92	16.7	0	0	---	0.00	30.244 
08:25	18.8	18.8	18.8	92	16.9	0	0	---	0.00	30.244 
08:30	19.1	19.1	19.1	92	17.2	0	0	---	0.00	30.248 
08:35	19.7	19.7	19.7	92	17.8	0	0	---	0.00	30.248 
08:40	20.2	20.2	20.2	92	18.3	0	0	---	0.00	30.248 
08:45	20.8	20.8	20.8	92	18.9	0	0	---	0.00	30.255 
08:50	21.4	21.4	21.4	93	19.7	0	0	---	0.00	30.255 
08:55	22.1	22.1	22.1	93	20.4	0	0	---	0.00	30.255 
09:00	23.0	23.0	23.0	94	21.5	0	0	---	0.00	30.256 
09:05	24.4	24.4	24.4	94	22.9	0	0	---	0.00	30.256 
09:10	25.3	25.3	25.3	94	23.8	0	0	---	0.00	30.256 
09:15	25.7	25.7	25.7	93	24.0	0	0	---	0.00	30.260 
09:20	26.4	26.4	26.4	95	25.2	0	0	---	0.00	30.260 
09:25	27.8	27.8	27.8	95	26.6	0	0	---	0.00	30.260 
09:30	29.1	29.1	29.1	96	28.1	0	0	---	0.00	30.258 
09:35	30.3	30.3	30.3	96	29.3	0	0	---	0.00	30.258 
09:40	31.2	31.2	31.2	96	30.2	0	0	---	0.00	30.258 
09:45	32.1	32.1	32.1	95	30.8	0	0	---	0.00	30.259 
09:50	31.5	31.5	31.5	94	30.0	0	1	90	0.01	30.259 
09:55	31.2	31.2	31.2	93	29.4	0	0	---	0.00	30.259 
10:00	31.2	31.2	31.2	93	29.4	0	0	---	0.00	30.265 
10:05	31.5	31.5	31.5	93	29.7	0	1	90	0.01	30.265 
10:10	31.8	31.8	31.8	93	30.0	0	0	---	0.00	30.265 
10:15	32.1	32.1	32.1	93	30.3	0	1	90	0.01	30.272 
10:20	32.5	32.5	32.5	93	30.7	0	0	---	0.00	30.272 
10:25	32.8	32.8	32.8	93	31.0	0	0	---	0.01	30.272 
10:30	33.1	33.1	33.1	92	31.0	0	1	90	0.00	30.275 
10:35	33.4	33.4	33.4	92	31.3	0	1	90	0.01	30.275 
10:40	33.7	33.7	33.7	91	31.4	0	0	---	0.00	30.275 
10:45	34.0	34.0	34.0	90	31.4	0	1	90	0.01	30.273 
10:50	34.3	34.3	34.3	89	31.4	0	1	90	0.00	30.273 
10:55	34.7	34.7	34.7	88	31.5	0	1	90	0.01	30.273 
11:00	35.0	35.0	35.0	87	31.5	0	1	90	0.00	30.275 
11:05	35.3	35.3	35.3	85	31.2	0	1	90	0.01	30.275 
11:10	35.6	35.6	35.6	83	31.0	0	1	90	0.00	30.275 
11:15	35.9	35.9	35.9	81	30.6	0	2	90	0.00	30.274 
11:20	36.2	36.2	36.2	81	30.9	0	1	90	0.01	30.274 
11:25	36.5	36.5	36.5	80	30.9	0	1	90	0.00	30.274 
11:30	36.6	36.6	36.6	79	30.7	0	1	90	0.01	30.275 
11:35	36.9	36.9	36.9	78	30.7	0	1	90	0.00	30.275 
11:40	37.2	37.2	37.2	78	31.0	0	2	90	0.00	30.275 
11:45	37.3	37.3	37.3	77	30.8	0	1	90	0.01	30.273 
11:50	37.5	37.5	37.5	77	31.0	0	1	90	0.00	30.273 
11:55	37.8	37.8	37.8	76	30.9	0	1	90	0.00	30.273 
12:00	37.8	37.8	37.8	75	30.6	0	1	90	0.00	30.270 
12:05	37.9	37.9	37.9	74	30.4	0	3	90	0.01	30.270 
12:10	38.0	38.0	38.0	74	30.5	0	2	270	0.00	30.270 
12:15	38.2	38.2	38.2	73	30.3	0	2	270	0.00	30.268 
12:20	38.3	38.3	38.3	73	30.4	0	2	270	0.00	30.268 
12:25	38.5	38.5	38.5	72	30.3	0	2	270	0.00	30.268 
12:30	38.5	38.5	38.5	71	29.9	0	2	270	0.00	30.262 
12:35	38.5	38.5	38.5	71	29.9	0	2	270	0.00	30.262 
12:40	38.6	38.6	38.6	70	29.7	0	1	270	0.01	30.262 
12:45	38.8	38.8	38.8	71	30.2	0	1	270	0.00	30.259 
12:50	38.9	38.9	38.9	70	30.0	0	1	270	0.00	30.259 
12:55	39.1	39.1	39.1	69	29.8	0	2	270	0.00	30.259 
13:00	39.2	39.2	39.2	68	29.5	0	2	270	0.00	30.257 
13:05	39.3	39.3	39.3	68	29.6	0	1	270	0.00	30.257 
13:10	39.5	39.5	39.5	67	29.5	0	2	270	0.00	30.257 
13:15	39.6	39.6	39.6	66	29.2	0	2	270	0.01	30.254 
13:20	39.8	39.8	39.8	63	28.2	0	1	270	0.00	30.254 
13:25	39.9	39.9	39.9	65	29.1	1	2	270	0.00	30.254 
13:30	39.9	39.9	39.9	64	28.7	0	2	270	0.00	30.252 
13:35	40.2	40.2	40.2	64	29.0	1	3	270	0.00	30.252 
13:40	40.2	40.2	40.2	63	28.6	0	1	270	0.00	30.252 
13:45	40.3	40.3	40.3	63	28.7	0	1	270	0.00	30.251 
13:50	40.5	40.5	40.5	63	28.9	0	2	270	0.00	30.251 
13:55	40.6	40.6	40.6	62	28.6	0	2	270	0.01	30.251 
14:00	40.8	40.8	40.8	62	28.8	0	2	270	0.00	30.248 
14:05	40.8	40.8	40.8	62	28.8	0	2	270	0.00	30.248 
14:10	40.8	40.8	40.8	61	28.4	0	1	270	0.00	30.248 
14:15	41.1	41.1	41.1	61	28.7	1	2	270	0.00	30.249 
14:20	41.1	41.1	41.1	61	28.7	0	2	270	0.00	30.249 
14:25	41.2	41.2	41.2	60	28.4	1	2	270	0.00	30.249 
14:30	41.2	41.2	41.2	61	28.8	0	2	270	0.00	30.248 
14:35	41.2	41.2	41.2	57	27.1	0	2	270	0.00	30.248 
14:40	41.3	41.3	41.3	59	28.1	0	2	270	0.01	30.248 
14:45	41.5	41.5	41.5	59	28.3	0	2	270	0.00	30.251 
14:50	41.6	41.6	41.6	60	28.8	0	2	270	0.00	30.251 
14:55	41.8	41.8	41.8	60	28.9	1	2	270	0.00	30.251 
15:00	41.9	41.9	41.9	59	28.6	0	2	270	0.00	30.252 
15:05	41.9	41.9	41.9	57	27.8	0	2	270	0.00	30.252 
15:10	42.1	42.1	42.1	57	28.0	1	2	270	0.00	30.252 
15:15	42.1	42.1	42.1	56	27.5	1	2	270	0.00	30.258 
15:20	41.9	41.9	41.9	55	26.9	0	2	270	0.00	30.258 
15:25	41.9	41.9	41.9	56	27.4	0	1	270	0.00	30.258 
15:30	42.3	42.3	42.3	56	27.7	0	2	270	0.01	30.260 
15:35	42.3	42.3	42.3	54	26.9	1	3	270	0.00	30.260 
15:40	42.5	42.5	42.5	54	27.0	1	2	270	0.00	30.260 
15:45	42.5	42.5	42.5	53	26.6	1	2	270	0.00	30.258 
15:50	42.3	42.3	42.3	54	26.9	0	2	270	0.00	30.258 
15:55	42.3	42.3	42.3	54	26.9	1	2	270	0.00	30.258 
16:00	42.3	42.3	42.3	54	26.9	0	2	270	0.00	30.260 
16:05	42.3	42.3	42.3	52	25.9	1	2	270	0.01	30.260 
16:10	42.1	42.1	42.1	53	26.2	0	2	270	0.00	30.260 
16:15	42.1	42.1	42.1	55	27.1	0	2	270	0.00	30.260 
16:20	42.1	42.1	42.1	54	26.7	0	2	270	0.00	30.260 
16:25	42.1	42.1	42.1	52	25.8	0	2	270	0.00	30.260 
16:30	41.9	41.9	41.9	52	25.6	1	3	270	0.00	30.261 
16:35	41.9	41.9	41.9	54	26.5	0	2	270	0.00	30.261 
16:40	41.8	41.8	41.8	52	25.5	0	1	270	0.00	30.261 
16:45	41.8	41.8	41.8	53	25.9	0	1	270	0.00	30.261 
16:50	41.6	41.6	41.6	53	25.8	0	2	270	0.00	30.261 
16:55	41.6	41.6	41.6	53	25.8	0	2	270	0.00	30.261 
17:00	41.6	41.6	41.6	54	26.2	0	1	270	0.00	30.263 
17:05	41.5	41.5	41.5	55	26.6	0	2	270	0.00	30.263 
17:10	41.5	41.5	41.5	56	27.0	0	2	270	0.00	30.263 
17:15	41.3	41.3	41.3	56	26.8	0	1	270	0.00	30.269 
17:20	41.2	41.2	41.2	57	27.1	0	1	270	0.00	30.269 
17:25	41.1	41.1	41.1	58	27.5	0	1	270	0.00	30.269 
17:30	40.9	40.9	40.9	58	27.3	0	2	270	0.00	30.269 
17:35	40.8	40.8	40.8	59	27.6	0	0	---	0.00	30.269 
17:40	40.5	40.5	40.5	60	27.7	0	0	---	0.00	30.269 
17:45	40.3	40.3	40.3	60	27.5	0	0	---	0.00	30.275 
17:50	40.1	40.1	40.1	61	27.7	0	0	---	0.00	30.275 
17:55	39.8	39.8	39.8	62	27.9	0	0	---	0.00	30.275 
18:00	39.3	39.3	39.3	62	27.4	0	0	---	0.00	30.277 
18:05	38.9	38.9	38.9	62	27.0	0	0	---	0.00	30.277 
18:10	38.3	38.3	38.3	63	26.8	0	0	---	0.00	30.277 
18:15	37.9	37.9	37.9	64	26.8	0	0	---	0.00	30.284 
18:20	37.5	37.5	37.5	65	26.8	0	0	---	0.00	30.284 
18:25	37.0	37.0	37.0	65	26.3	0	0	---	0.00	30.284 
18:30	36.6	36.6	36.6	66	26.3	0	0	---	0.00	30.284 
18:35	36.2	36.2	36.2	67	26.3	0	0	---	0.00	30.284 
18:40	35.9	35.9	35.9	68	26.4	0	0	---	0.00	30.284 
18:45	35.5	35.5	35.5	69	26.4	0	0	---	0.00	30.286 
18:50	35.0	35.0	35.0	69	25.9	0	0	---	0.00	30.286 
18:55	34.6	34.6	34.6	71	26.2	0	0	---	0.00	30.286 
19:00	34.1	34.1	34.1	72	26.0	0	0	---	0.00	30.290 
19:05	33.7	33.7	33.7	72	25.7	0	0	---	0.00	30.290 
19:10	33.2	33.2	33.2	73	25.5	0	0	---	0.00	30.290 
19:15	32.9	32.9	32.9	74	25.5	0	0	---	0.00	30.289 
19:20	32.7	32.7	32.7	75	25.7	0	0	---	0.00	30.289 
19:25	32.4	32.4	32.4	76	25.7	0	0	---	0.00	30.289 
19:30	31.9	31.9	31.9	76	25.2	0	0	---	0.00	30.292 
19:35	31.5	31.5	31.5	77	25.1	0	0	---	0.00	30.292 
19:40	31.2	31.2	31.2	77	24.8	0	0	---	0.00	30.292 
19:45	30.9	30.9	30.9	78	24.9	0	0	---	0.00	30.293 
19:50	30.6	30.6	30.6	79	24.9	0	0	---	0.00	30.293 
19:55	30.3	30.3	30.3	80	24.9	0	0	---	0.00	30.293 
20:00	30.1	30.1	30.1	80	24.7	0	0	---	0.00	30.293 
20:05	29.8	29.8	29.8	81	24.7	0	0	---	0.00	30.293 
20:10	29.5	29.5	29.5	81	24.4	0	0	---	0.00	30.293 
20:15	29.4	29.4	29.4	82	24.6	0	0	---	0.00	30.291 
20:20	29.4	29.4	29.4	83	24.9	0	0	---	0.00	30.291 
20:25	29.4	29.4	29.4	83	24.9	0	0	---	0.00	30.291 
20:30	29.4	29.4	29.4	84	25.2	0	0	---	0.00	30.289 
20:35	29.4	29.4	29.4	84	25.2	0	0	---	0.00	30.289 
20:40	29.4	29.4	29.4	84	25.2	0	0	---	0.00	30.289 
20:45	29.4	29.4	29.4	84	25.2	0	0	---	0.00	30.292 
20:50	29.4	29.4	29.4	84	25.2	0	0	---	0.00	30.292 
20:55	29.3	29.3	29.3	84	25.1	0	0	---	0.00	30.292 
21:00	29.0	29.0	29.0	84	24.8	0	0	---	0.00	30.289 
21:05	28.8	28.8	28.8	84	24.6	0	0	---	0.00	30.289 
21:10	28.5	28.5	28.5	84	24.3	0	0	---	0.00	30.289 
21:15	28.4	28.4	28.4	85	24.5	0	0	---	0.00	30.282 
21:20	28.2	28.2	28.2	85	24.3	0	0	---	0.00	30.282 
21:25	27.9	27.9	27.9	85	24.0	0	0	---	0.00	30.282 
21:30	27.8	27.8	27.8	85	23.9	0	0	---	0.00	30.279 
21:35	27.8	27.8	27.8	86	24.2	0	0	---	0.00	30.279 
21:40	27.6	27.6	27.6	86	24.0	0	0	---	0.00	30.279 
21:45	27.5	27.5	27.5	86	23.9	0	0	---	0.00	30.273 
21:50	27.2	27.2	27.2	86	23.6	0	0	---	0.00	30.273 
21:55	27.0	27.0	27.0	86	23.4	0	0	---	0.00	30.273 
22:00	27.0	27.0	27.0	87	23.7	0	0	---	0.00	30.268 
22:05	27.0	27.0	27.0	87	23.7	0	0	---	0.00	30.268 
22:10	27.0	27.0	27.0	87	23.7	0	0	---	0.00	30.268 
22:15	27.0	27.0	27.0	87	23.7	0	0	---	0.00	30.261 
22:20	27.0	27.0	27.0	87	23.7	0	0	---	0.00	30.261 
22:25	27.0	27.0	27.0	88	23.9	0	0	---	0.00	30.261 
22:30	26.9	26.9	26.9	88	23.8	0	0	---	0.00	30.256 
22:35	26.9	26.9	26.9	88	23.8	0	0	---	0.00	30.256 
22:40	26.7	26.7	26.7	88	23.6	0	0	---	0.00	30.256 
22:45	26.7	26.7	26.7	88	23.6	0	0	---	0.00	30.249 
22:50	26.7	26.7	26.7	88	23.6	0	0	---	0.00	30.249 
22:55	26.6	26.6	26.6	88	23.5	0	0	---	0.00	30.249 
23:00	26.4	26.4	26.4	88	23.3	0	0	---	0.00	30.246 
23:05	26.4	26.4	26.4	88	23.3	0	0	---	0.00	30.246 
23:10	26.4	26.4	26.4	88	23.3	0	0	---	0.00	30.246 
23:15	26.6	26.6	26.6	89	23.8	0	0	---	0.00	30.240 
23:20	26.6	26.6	26.6	89	23.8	0	0	---	0.00	30.240 
23:25	26.6	26.6	26.6	89	23.8	0	0	---	0.00	30.240 
23:30	26.4	26.4	26.4	89	23.6	0	0	---	0.00	30.243 
23:35	26.6	26.6	26.6	89	23.8	0	0	---	0.00	30.243 
23:40	26.6	26.6	26.6	89	23.8	0	0	---	0.00	30.243 
23:45	26.6	26.6	26.6	89	23.8	0	0	---	0.00	30.244 
23:50	26.4	26.4	26.4	89	23.6	0	0	---	0.00	30.244 
23:55	26.4	26.4	26.4	89	23.6	0	0	---	0.00	30.244 

CoCoRaHS
IN-AL-39
A2 Web Hosting
Creative Commons License
GoDaddy
search engine by freefind advanced

loaded 2018-11-14 04:56:25 • last modified 2010-11-18 10:43:29
Privacy PolicyDisclaimer
• wx.awcolley.com is powered by PmWiki v.2002016 •
• all content (unless otherwise noted) © 2018 A W Colley